South Britain, CT

3:25 PM EST on March 04, 2015 (GMT -0500)
KCTSOUTH13 | Change Station
CLOSE
Current Station
Personal Weather Station
Location: Astrium Satellite, Southbury, CT
Elevation: 121 ft
Nearby Weather Stations

Elev 121 ft 41.45 °N, 73.29 °W | Updated 33 seconds ago

Clear
Clear
42.9 °F
Feels Like 43 °F
N
2.0
Wind Variable Wind from SSW
Gusts 5.0 mph

Today
High -- | Low -- °F
--% Chance of Precip.
Yesterday
High -- | Low -- °F
Precip. -- in
6:23 AM 5:46 PM
Waxing Gibbous, 99% visible
Pressure 29.79 in
Visibility 10.0 miles
Clouds Mostly Cloudy 12000 ft
Windchill 43 °F
Dew Point 36 °F
Humidity 76%
Rainfall 0.76 in
Snow Depth Not available.
UV 2 out of 12
Pollen .20 out of 12
Air Quality Not available.
Flu Activity Not available.
METAR KOXC 041945Z 00000KT 10SM BKN120 05/M01 A2979

More Conditions Fewer Conditions

Pressure 29.79 in
Visibility 10.0 miles
Clouds Mostly Cloudy 12000 ft
Windchill 43 °F
Dew Point 36 °F
Humidity 76%
Rainfall 0.76 in
Snow Depth Not available.
UV 2 out of 12
Pollen .20 out of 12
Air Quality Not available.
Flu Activity Not available.
METAR KOXC 041945Z 00000KT 10SM BKN120 05/M01 A2979

More Conditions Fewer Conditions

10-Day Weather Forecast

Almanac

Astronomy

Mar. 04, 2015 Rise Set
Actual Time
Civil Twilight
Nautical Twilight
Astronomical Twilight
Moon
Length of Visible Light
Length of Day
Tomorrow will be .
, % of the Moon is Illuminated

Today's Extremes

State Highs State Lows

Community

WunderPhotos

Upload Photos

1,802,575 photos uploaded!

WunderBlogs® & News

Nearby

Air Quality

  Air Quality AQ Index Pollutant
Not available.

Snow Depth

Station Depth Elevation

Earthquake Activity

City Distance Mag. Time & Date
Minimum magnitude displayed is 2.5.

Coastal Water Temperatures

Place Temperature

Nearby Weather Stations